Avalon — PBSF — position and weather

sailwx.info

Track history (hours):
 
Tides and Currents Weather Stations Pressure Air Temp Water Temp Dewpoint Dewpoint Depression Visibility Wind Speed Wind Dir Waves Ship Positions

Avalon

Last reported at 2014-Aug-29 23:34 UTC. Time now 2014-Aug-30 00:29 UTC.
Position N 51°07' E 001°37'.

Length 89 m; draft 5.3 m.

Type: Cargo ship. MMSI: 246578000.

Date/timePositionNaut miles runAvg speedWind from/ knotsBaromVisibWave heightAir tempDewpointWater temp
2014-Aug-29 23:34N 51°07' E 001°37'9 9.3
2014-Aug-29 22:33N 51°14' E 001°47'1110.5
2014-Aug-29 21:33N 51°23' E 001°57'8 7.6
2014-Aug-29 20:26N 51°22' E 002°11'7 7.9
2014-Aug-29 19:31N 51°21' E 002°22'8 7.9
2014-Aug-29 18:29N 51°23' E 002°35'7 7.3
2014-Aug-29 17:33N 51°22' E 002°46'8 7.9
2014-Aug-29 16:34N 51°22' E 002°59'8 7.8
2014-Aug-29 15:33N 51°23' E 003°11'8 7.5
2014-Aug-29 14:33N 51°24' E 003°23'6 6.2
2014-Aug-29 13:33N 51°25' E 003°33'7 6.9
2014-Aug-29 12:33N 51°23' E 003°43'5 4.8
2014-Aug-29 11:34N 51°20' E 003°49'1 0.9
2014-Aug-29 10:33N 51°19' E 003°50'4 4.1
2014-Aug-29 09:34N 51°15' E 003°49'7 6.4
2014-Aug-29 08:31N 51°08' E 003°47'0 0.0
2014-Aug-29 07:31N 51°08' E 003°47'0 0.0
2014-Aug-29 06:31N 51°08' E 003°47'0 0.0
2014-Aug-29 05:31N 51°08' E 003°47'0 0.0
2014-Aug-29 04:31N 51°08' E 003°47'0 0.0
2014-Aug-29 03:31N 51°08' E 003°47'0 0.0
2014-Aug-29 02:31N 51°08' E 003°47'0 0.0
2014-Aug-29 01:31N 51°08' E 003°47'0 0.0
2014-Aug-29 00:31N 51°08' E 003°47'0 0.0
2014-Aug-28 23:31N 51°08' E 003°47'0 0.0
2014-Aug-28 22:31N 51°08' E 003°47'0 0.0
2014-Aug-28 21:25N 51°08' E 003°47'0 0.0
2014-Aug-28 20:31N 51°08' E 003°47'0 0.0
2014-Aug-28 19:31N 51°08' E 003°47'0 0.0
2014-Aug-28 18:31N 51°08' E 003°47'0 0.0
2014-Aug-28 17:31N 51°08' E 003°47'0 0.0
2014-Aug-28 16:31N 51°08' E 003°47'0 0.0
2014-Aug-28 15:31N 51°08' E 003°47'0 0.0
2014-Aug-28 14:31N 51°08' E 003°47'0 0.0
2014-Aug-28 13:31N 51°08' E 003°47'0 0.0
2014-Aug-28 12:31N 51°08' E 003°47'0 0.0
2014-Aug-28 11:31N 51°08' E 003°47'0 0.0
2014-Aug-28 10:33N 51°08' E 003°47'0 0.0
2014-Aug-28 09:33N 51°08' E 003°47'0 0.0
2014-Aug-28 08:33N 51°08' E 003°47'0 0.0
2014-Aug-28 07:33N 51°08' E 003°47'0 0.0
2014-Aug-28 06:33N 51°08' E 003°47'0 0.0
2014-Aug-28 05:33N 51°08' E 003°47'0 0.0
2014-Aug-28 04:33N 51°08' E 003°47'0 0.0
2014-Aug-28 03:33N 51°08' E 003°47'0 0.0
2014-Aug-28 02:34N 51°08' E 003°47'0 0.0
2014-Aug-28 01:33N 51°08' E 003°47'0 0.0
2014-Aug-28 00:32N 51°08' E 003°47'0 0.0
2014-Aug-27 23:33N 51°08' E 003°47'0 0.0
2014-Aug-27 22:33N 51°08' E 003°47'0 0.0
2014-Aug-27 21:33N 51°08' E 003°47'0 0.0
2014-Aug-27 20:33N 51°08' E 003°47'0 0.0
2014-Aug-27 19:33N 51°08' E 003°47'0 0.0
2014-Aug-27 18:33N 51°08' E 003°47'0 0.0
2014-Aug-27 17:33N 51°08' E 003°47'0 0.0
2014-Aug-27 16:33N 51°08' E 003°47'0 0.0
2014-Aug-27 15:33N 51°08' E 003°47'0 0.0
2014-Aug-27 14:33N 51°08' E 003°47'0 0.0
2014-Aug-27 13:33N 51°08' E 003°47'0 0.0
2014-Aug-27 12:33N 51°08' E 003°47'0 0.0
2014-Aug-27 11:33N 51°08' E 003°47'0 0.0
2014-Aug-27 10:33N 51°08' E 003°47'0 0.0
2014-Aug-27 09:33N 51°08' E 003°47'0 0.0
2014-Aug-27 08:33N 51°08' E 003°47'0 0.0
2014-Aug-27 07:33N 51°08' E 003°47'0 0.0
2014-Aug-27 06:33N 51°08' E 003°47'0 0.0
2014-Aug-27 05:34N 51°08' E 003°47'2 1.8
2014-Aug-27 04:33N 51°10' E 003°48'8 8.1
2014-Aug-27 03:33N 51°18' E 003°50'2 2.3
2014-Aug-27 02:34N 51°20' E 003°49'9 9.1
2014-Aug-27 01:34N 51°25' E 003°37'9 9.1
2014-Aug-27 00:33N 51°31' E 003°26'1211.1
2014-Aug-26 23:30N 51°41' E 003°16'7 7.3
2014-Aug-26 22:33N 51°48' E 003°14'19 8.7
2014-Aug-26 20:20N 52°03' E 003°35'810.3
2014-Aug-26 19:34N 52°03' E 003°48'1010.2
2014-Aug-26 18:33N 51°59' E 004°03'1212.4
2014-Aug-26 17:33N 51°52' E 004°20'7 7.5
2014-Aug-26 16:34N 51°50' E 004°31'8 7.7
2014-Aug-26 15:33N 51°43' E 004°37'2 1.5
2014-Aug-26 14:32N 51°42' E 004°37'0 0.0
2014-Aug-26 13:32N 51°42' E 004°37'0 0.0
2014-Aug-26 12:29N 51°42' E 004°37'0 0.0
2014-Aug-26 11:29N 51°42' E 004°37'0 0.0
2014-Aug-26 10:32N 51°42' E 004°37'0 0.0
2014-Aug-26 09:29N 51°42' E 004°37'0 0.0
2014-Aug-26 08:32N 51°42' E 004°37'0 0.0
2014-Aug-26 07:29N 51°42' E 004°37'0 0.0
2014-Aug-26 06:29N 51°42' E 004°37'0 0.0
2014-Aug-26 05:29N 51°42' E 004°37'0 0.0
2014-Aug-26 04:32N 51°42' E 004°37'0 0.0
2014-Aug-26 03:29N 51°42' E 004°37'0 0.0
2014-Aug-26 02:29N 51°42' E 004°37'0 0.0
2014-Aug-26 01:29N 51°42' E 004°37'0 0.0
2014-Aug-26 00:32N 51°42' E 004°37'0 0.0
2014-Aug-25 23:32N 51°42' E 004°37'0 0.0
2014-Aug-25 22:29N 51°42' E 004°37'0 0.0
2014-Aug-25 21:32N 51°42' E 004°37'0 0.0
2014-Aug-25 20:29N 51°42' E 004°37'0 0.0
2014-Aug-25 19:32N 51°42' E 004°37'0 0.0
2014-Aug-25 18:29N 51°42' E 004°37'0 0.0
2014-Aug-25 17:29N 51°42' E 004°37'0 0.0
2014-Aug-25 16:32N 51°42' E 004°37'0 0.0
2014-Aug-25 15:23N 51°42' E 004°37'0 0.0
2014-Aug-25 14:26N 51°42' E 004°37'0 0.0
2014-Aug-25 13:29N 51°42' E 004°37'0 0.0
2014-Aug-25 12:29N 51°42' E 004°37'1 0.7
2014-Aug-25 11:34N 51°42' E 004°36'1 0.6
2014-Aug-25 10:32N 51°41' E 004°36'0 0.0
2014-Aug-25 09:32N 51°41' E 004°36'0 0.0
2014-Aug-25 08:29N 51°41' E 004°36'0 0.0
2014-Aug-25 07:32N 51°41' E 004°36'0 0.0
2014-Aug-25 06:32N 51°41' E 004°36'0 0.0
2014-Aug-25 05:32N 51°41' E 004°36'0 0.0
2014-Aug-25 04:29N 51°41' E 004°36'0 0.0
2014-Aug-25 03:32N 51°41' E 004°36'0 0.0
2014-Aug-25 02:29N 51°41' E 004°36'0 0.0
2014-Aug-25 01:32N 51°41' E 004°36'0 0.0
2014-Aug-25 00:32N 51°41' E 004°36'0 0.0
2014-Aug-24 23:32N 51°41' E 004°36'0 0.0
2014-Aug-24 22:32N 51°41' E 004°36'0 0.0
2014-Aug-24 21:29N 51°41' E 004°36'0 0.0
2014-Aug-24 20:32N 51°41' E 004°36'0 0.0
2014-Aug-24 19:32N 51°41' E 004°36'0 0.0
2014-Aug-24 18:32N 51°41' E 004°36'0 0.0
2014-Aug-24 17:29N 51°41' E 004°36'0 0.0
2014-Aug-24 16:29N 51°41' E 004°36'0 0.0
2014-Aug-24 15:32N 51°41' E 004°36'0 0.0
2014-Aug-24 14:29N 51°41' E 004°36'0 0.0
2014-Aug-24 13:32N 51°41' E 004°36'0 0.0
2014-Aug-24 12:32N 51°41' E 004°36'0 0.0
2014-Aug-24 11:29N 51°41' E 004°36'0 0.0
2014-Aug-24 10:32N 51°41' E 004°36'0 0.0
2014-Aug-24 09:29N 51°41' E 004°36'0 0.0
2014-Aug-24 08:32N 51°41' E 004°36'0 0.0
2014-Aug-24 07:29N 51°41' E 004°36'0 0.0
2014-Aug-24 06:29N 51°41' E 004°36'0 0.0
2014-Aug-24 05:29N 51°41' E 004°36'0 0.0
2014-Aug-24 04:29N 51°41' E 004°36'0 0.0
2014-Aug-24 03:32N 51°41' E 004°36'0 0.0
2014-Aug-24 02:29N 51°41' E 004°36'0 0.0
2014-Aug-24 01:29N 51°41' E 004°36'0 0.0
2014-Aug-24 00:32N 51°41' E 004°36'0 0.0
2014-Aug-23 23:32N 51°41' E 004°36'0 0.0
2014-Aug-23 22:32N 51°41' E 004°36'0 0.0
2014-Aug-23 21:29N 51°41' E 004°36'0 0.0
2014-Aug-23 20:29N 51°41' E 004°36'0 0.0
2014-Aug-23 19:32N 51°41' E 004°36'0 0.0
2014-Aug-23 03:32N 51°41' E 004°36'0 0.0
2014-Aug-23 02:29N 51°41' E 004°36'0 0.0
2014-Aug-23 01:32N 51°41' E 004°36'0 0.0
2014-Aug-23 00:32N 51°41' E 004°36'0 0.0
2014-Aug-22 23:32N 51°41' E 004°36'0 0.0
2014-Aug-22 22:32N 51°41' E 004°36'0 0.0
2014-Aug-22 21:32N 51°41' E 004°36'0 0.0
2014-Aug-22 20:32N 51°41' E 004°36'0 0.0
2014-Aug-22 19:29N 51°41' E 004°36'0 0.0
2014-Aug-22 18:29N 51°41' E 004°36'0 0.0
2014-Aug-22 17:32N 51°41' E 004°36'0 0.0
2014-Aug-22 16:32N 51°41' E 004°36'0 0.0
2014-Aug-22 15:32N 51°41' E 004°36'0 0.0
2014-Aug-22 14:32N 51°41' E 004°36'0 0.1
2014-Aug-22 13:33N 51°41' E 004°36'6 6.3
2014-Aug-22 12:34N 51°48' E 004°37'10 9.9
2014-Aug-22 11:33N 51°51' E 004°22'1010.0
2014-Aug-22 10:33N 51°57' E 004°10'1010.1
2014-Aug-22 09:33N 52°00' E 003°54'8 7.7
2014-Aug-22 08:33N 52°06' E 003°47'1110.5
2014-Aug-22 07:33N 52°17' E 003°47'1010.3
2014-Aug-22 06:33N 52°27' E 003°51'66 8.3
2014-Aug-21 22:32N 53°27' E 004°38'1010.1
2014-Aug-21 21:33N 53°31' E 004°53'1010.2
2014-Aug-21 20:33N 53°35' E 005°09'1010.0
2014-Aug-21 19:32N 53°38' E 005°25'9 9.5
2014-Aug-21 18:33N 53°41' E 005°40'9 9.1
2014-Aug-21 17:33N 53°44' E 005°55'47 9.3
2014-Aug-21 12:31N 53°57' E 007°11'1110.7
2014-Aug-21 11:29N 53°60' E 007°30'1410.2
2014-Aug-21 10:04N 54°01' E 007°54'510.1
2014-Aug-21 09:33N 54°01' E 008°03'1010.2
2014-Aug-21 08:33N 54°00' E 008°20'10 9.7
2014-Aug-21 07:33N 53°58' E 008°36'9 8.8
2014-Aug-21 06:33N 53°51' E 008°46'9 8.9
2014-Aug-21 05:33N 53°52' E 009°01'5 5.1
2014-Aug-21 04:33N 53°54' E 009°09'5 5.2
2014-Aug-21 03:33N 53°57' E 009°15'8 8.4
2014-Aug-21 02:33N 54°05' E 009°19'6 6.2
2014-Aug-21 01:33N 54°10' E 009°26'8 7.7
2014-Aug-21 00:33N 54°15' E 009°37'67 6.5
2014-Aug-20 14:15N 54°32' E 011°28'6 8.1
2014-Aug-20 13:33N 54°30' E 011°38'8 7.9
2014-Aug-20 12:33N 54°28' E 011°51'9 8.7
2014-Aug-20 11:33N 54°27' E 012°06'8 8.2
2014-Aug-20 10:33N 54°34' E 012°13'9 8.9
2014-Aug-20 09:31N 54°42' E 012°22'9 9.1
2014-Aug-20 08:33N 54°47' E 012°33'10 9.1
2014-Aug-20 07:30N 54°54' E 012°46'48 8.0
2014-Aug-20 01:29N 55°13' E 014°03'8 8.5
2014-Aug-20 00:33N 55°14' E 014°16'  
Track history (hours):
 
Tides and Currents Weather Stations Pressure Air Temp Water Temp Dewpoint Dewpoint Depression Visibility Wind Speed Wind Dir Waves Ship Positions

Avalon

Last reported at 2014-Aug-29 23:34 UTC. Time now 2014-Aug-30 00:29 UTC.
Position N 51°07' E 001°37'.

Length 89 m; draft 5.3 m.

Type: Cargo ship. MMSI: 246578000.

Date/timePositionNaut miles runAvg speedWind from/ knotsBaromVisibWave heightAir tempDewpointWater temp
2014-Aug-29 23:34N 51°07' E 001°37'9 9.3
2014-Aug-29 22:33N 51°14' E 001°47'1110.5
2014-Aug-29 21:33N 51°23' E 001°57'8 7.6
2014-Aug-29 20:26N 51°22' E 002°11'7 7.9
2014-Aug-29 19:31N 51°21' E 002°22'8 7.9
2014-Aug-29 18:29N 51°23' E 002°35'7 7.3
2014-Aug-29 17:33N 51°22' E 002°46'8 7.9
2014-Aug-29 16:34N 51°22' E 002°59'8 7.8
2014-Aug-29 15:33N 51°23' E 003°11'8 7.5
2014-Aug-29 14:33N 51°24' E 003°23'6 6.2
2014-Aug-29 13:33N 51°25' E 003°33'7 6.9
2014-Aug-29 12:33N 51°23' E 003°43'5 4.8
2014-Aug-29 11:34N 51°20' E 003°49'1 0.9
2014-Aug-29 10:33N 51°19' E 003°50'4 4.1
2014-Aug-29 09:34N 51°15' E 003°49'7 6.4
2014-Aug-29 08:31N 51°08' E 003°47'0 0.0
2014-Aug-29 07:31N 51°08' E 003°47'0 0.0
2014-Aug-29 06:31N 51°08' E 003°47'0 0.0
2014-Aug-29 05:31N 51°08' E 003°47'0 0.0
2014-Aug-29 04:31N 51°08' E 003°47'0 0.0
2014-Aug-29 03:31N 51°08' E 003°47'0 0.0
2014-Aug-29 02:31N 51°08' E 003°47'0 0.0
2014-Aug-29 01:31N 51°08' E 003°47'0 0.0
2014-Aug-29 00:31N 51°08' E 003°47'0 0.0
2014-Aug-28 23:31N 51°08' E 003°47'0 0.0
2014-Aug-28 22:31N 51°08' E 003°47'0 0.0
2014-Aug-28 21:25N 51°08' E 003°47'0 0.0
2014-Aug-28 20:31N 51°08' E 003°47'0 0.0
2014-Aug-28 19:31N 51°08' E 003°47'0 0.0
2014-Aug-28 18:31N 51°08' E 003°47'0 0.0
2014-Aug-28 17:31N 51°08' E 003°47'0 0.0
2014-Aug-28 16:31N 51°08' E 003°47'0 0.0
2014-Aug-28 15:31N 51°08' E 003°47'0 0.0
2014-Aug-28 14:31N 51°08' E 003°47'0 0.0
2014-Aug-28 13:31N 51°08' E 003°47'0 0.0
2014-Aug-28 12:31N 51°08' E 003°47'0 0.0
2014-Aug-28 11:31N 51°08' E 003°47'0 0.0
2014-Aug-28 10:33N 51°08' E 003°47'0 0.0
2014-Aug-28 09:33N 51°08' E 003°47'0 0.0
2014-Aug-28 08:33N 51°08' E 003°47'0 0.0
2014-Aug-28 07:33N 51°08' E 003°47'0 0.0
2014-Aug-28 06:33N 51°08' E 003°47'0 0.0
2014-Aug-28 05:33N 51°08' E 003°47'0 0.0
2014-Aug-28 04:33N 51°08' E 003°47'0 0.0
2014-Aug-28 03:33N 51°08' E 003°47'0 0.0
2014-Aug-28 02:34N 51°08' E 003°47'0 0.0
2014-Aug-28 01:33N 51°08' E 003°47'0 0.0
2014-Aug-28 00:32N 51°08' E 003°47'0 0.0
2014-Aug-27 23:33N 51°08' E 003°47'0 0.0
2014-Aug-27 22:33N 51°08' E 003°47'0 0.0
2014-Aug-27 21:33N 51°08' E 003°47'0 0.0
2014-Aug-27 20:33N 51°08' E 003°47'0 0.0
2014-Aug-27 19:33N 51°08' E 003°47'0 0.0
2014-Aug-27 18:33N 51°08' E 003°47'0 0.0
2014-Aug-27 17:33N 51°08' E 003°47'0 0.0
2014-Aug-27 16:33N 51°08' E 003°47'0 0.0
2014-Aug-27 15:33N 51°08' E 003°47'0 0.0
2014-Aug-27 14:33N 51°08' E 003°47'0 0.0
2014-Aug-27 13:33N 51°08' E 003°47'0 0.0
2014-Aug-27 12:33N 51°08' E 003°47'0 0.0
2014-Aug-27 11:33N 51°08' E 003°47'0 0.0
2014-Aug-27 10:33N 51°08' E 003°47'0 0.0
2014-Aug-27 09:33N 51°08' E 003°47'0 0.0
2014-Aug-27 08:33N 51°08' E 003°47'0 0.0
2014-Aug-27 07:33N 51°08' E 003°47'0 0.0
2014-Aug-27 06:33N 51°08' E 003°47'0 0.0
2014-Aug-27 05:34N 51°08' E 003°47'2 1.8
2014-Aug-27 04:33N 51°10' E 003°48'8 8.1
2014-Aug-27 03:33N 51°18' E 003°50'2 2.3
2014-Aug-27 02:34N 51°20' E 003°49'9 9.1
2014-Aug-27 01:34N 51°25' E 003°37'9 9.1
2014-Aug-27 00:33N 51°31' E 003°26'1211.1
2014-Aug-26 23:30N 51°41' E 003°16'7 7.3
2014-Aug-26 22:33N 51°48' E 003°14'19 8.7
2014-Aug-26 20:20N 52°03' E 003°35'810.3
2014-Aug-26 19:34N 52°03' E 003°48'1010.2
2014-Aug-26 18:33N 51°59' E 004°03'1212.4
2014-Aug-26 17:33N 51°52' E 004°20'7 7.5
2014-Aug-26 16:34N 51°50' E 004°31'8 7.7
2014-Aug-26 15:33N 51°43' E 004°37'2 1.5
2014-Aug-26 14:32N 51°42' E 004°37'0 0.0
2014-Aug-26 13:32N 51°42' E 004°37'0 0.0
2014-Aug-26 12:29N 51°42' E 004°37'0 0.0
2014-Aug-26 11:29N 51°42' E 004°37'0 0.0
2014-Aug-26 10:32N 51°42' E 004°37'0 0.0
2014-Aug-26 09:29N 51°42' E 004°37'0 0.0
2014-Aug-26 08:32N 51°42' E 004°37'0 0.0
2014-Aug-26 07:29N 51°42' E 004°37'0 0.0
2014-Aug-26 06:29N 51°42' E 004°37'0 0.0
2014-Aug-26 05:29N 51°42' E 004°37'0 0.0
2014-Aug-26 04:32N 51°42' E 004°37'0 0.0
2014-Aug-26 03:29N 51°42' E 004°37'0 0.0
2014-Aug-26 02:29N 51°42' E 004°37'0 0.0
2014-Aug-26 01:29N 51°42' E 004°37'0 0.0
2014-Aug-26 00:32N 51°42' E 004°37'0 0.0
2014-Aug-25 23:32N 51°42' E 004°37'0 0.0
2014-Aug-25 22:29N 51°42' E 004°37'0 0.0
2014-Aug-25 21:32N 51°42' E 004°37'0 0.0
2014-Aug-25 20:29N 51°42' E 004°37'0 0.0
2014-Aug-25 19:32N 51°42' E 004°37'0 0.0
2014-Aug-25 18:29N 51°42' E 004°37'0 0.0
2014-Aug-25 17:29N 51°42' E 004°37'0 0.0
2014-Aug-25 16:32N 51°42' E 004°37'0 0.0
2014-Aug-25 15:23N 51°42' E 004°37'0 0.0
2014-Aug-25 14:26N 51°42' E 004°37'0 0.0
2014-Aug-25 13:29N 51°42' E 004°37'0 0.0
2014-Aug-25 12:29N 51°42' E 004°37'1 0.7
2014-Aug-25 11:34N 51°42' E 004°36'1 0.6
2014-Aug-25 10:32N 51°41' E 004°36'0 0.0
2014-Aug-25 09:32N 51°41' E 004°36'0 0.0
2014-Aug-25 08:29N 51°41' E 004°36'0 0.0
2014-Aug-25 07:32N 51°41' E 004°36'0 0.0
2014-Aug-25 06:32N 51°41' E 004°36'0 0.0
2014-Aug-25 05:32N 51°41' E 004°36'0 0.0
2014-Aug-25 04:29N 51°41' E 004°36'0 0.0
2014-Aug-25 03:32N 51°41' E 004°36'0 0.0
2014-Aug-25 02:29N 51°41' E 004°36'0 0.0
2014-Aug-25 01:32N 51°41' E 004°36'0 0.0
2014-Aug-25 00:32N 51°41' E 004°36'0 0.0
2014-Aug-24 23:32N 51°41' E 004°36'0 0.0
2014-Aug-24 22:32N 51°41' E 004°36'0 0.0
2014-Aug-24 21:29N 51°41' E 004°36'0 0.0
2014-Aug-24 20:32N 51°41' E 004°36'0 0.0
2014-Aug-24 19:32N 51°41' E 004°36'0 0.0
2014-Aug-24 18:32N 51°41' E 004°36'0 0.0
2014-Aug-24 17:29N 51°41' E 004°36'0 0.0
2014-Aug-24 16:29N 51°41' E 004°36'0 0.0
2014-Aug-24 15:32N 51°41' E 004°36'0 0.0
2014-Aug-24 14:29N 51°41' E 004°36'0 0.0
2014-Aug-24 13:32N 51°41' E 004°36'0 0.0
2014-Aug-24 12:32N 51°41' E 004°36'0 0.0
2014-Aug-24 11:29N 51°41' E 004°36'0 0.0
2014-Aug-24 10:32N 51°41' E 004°36'0 0.0
2014-Aug-24 09:29N 51°41' E 004°36'0 0.0
2014-Aug-24 08:32N 51°41' E 004°36'0 0.0
2014-Aug-24 07:29N 51°41' E 004°36'0 0.0
2014-Aug-24 06:29N 51°41' E 004°36'0 0.0
2014-Aug-24 05:29N 51°41' E 004°36'0 0.0
2014-Aug-24 04:29N 51°41' E 004°36'0 0.0
2014-Aug-24 03:32N 51°41' E 004°36'0 0.0
2014-Aug-24 02:29N 51°41' E 004°36'0 0.0
2014-Aug-24 01:29N 51°41' E 004°36'0 0.0
2014-Aug-24 00:32N 51°41' E 004°36'0 0.0
2014-Aug-23 23:32N 51°41' E 004°36'0 0.0
2014-Aug-23 22:32N 51°41' E 004°36'0 0.0
2014-Aug-23 21:29N 51°41' E 004°36'0 0.0
2014-Aug-23 20:29N 51°41' E 004°36'0 0.0
2014-Aug-23 19:32N 51°41' E 004°36'0 0.0
2014-Aug-23 03:32N 51°41' E 004°36'0 0.0
2014-Aug-23 02:29N 51°41' E 004°36'0 0.0
2014-Aug-23 01:32N 51°41' E 004°36'0 0.0
2014-Aug-23 00:32N 51°41' E 004°36'0 0.0
2014-Aug-22 23:32N 51°41' E 004°36'0 0.0
2014-Aug-22 22:32N 51°41' E 004°36'0 0.0
2014-Aug-22 21:32N 51°41' E 004°36'0 0.0
2014-Aug-22 20:32N 51°41' E 004°36'0 0.0
2014-Aug-22 19:29N 51°41' E 004°36'0 0.0
2014-Aug-22 18:29N 51°41' E 004°36'0 0.0
2014-Aug-22 17:32N 51°41' E 004°36'0 0.0
2014-Aug-22 16:32N 51°41' E 004°36'0 0.0
2014-Aug-22 15:32N 51°41' E 004°36'0 0.0
2014-Aug-22 14:32N 51°41' E 004°36'0 0.1
2014-Aug-22 13:33N 51°41' E 004°36'6 6.3
2014-Aug-22 12:34N 51°48' E 004°37'10 9.9
2014-Aug-22 11:33N 51°51' E 004°22'1010.0
2014-Aug-22 10:33N 51°57' E 004°10'1010.1
2014-Aug-22 09:33N 52°00' E 003°54'8 7.7
2014-Aug-22 08:33N 52°06' E 003°47'1110.5
2014-Aug-22 07:33N 52°17' E 003°47'1010.3
2014-Aug-22 06:33N 52°27' E 003°51'66 8.3
2014-Aug-21 22:32N 53°27' E 004°38'1010.1
2014-Aug-21 21:33N 53°31' E 004°53'1010.2
2014-Aug-21 20:33N 53°35' E 005°09'1010.0
2014-Aug-21 19:32N 53°38' E 005°25'9 9.5
2014-Aug-21 18:33N 53°41' E 005°40'9 9.1
2014-Aug-21 17:33N 53°44' E 005°55'47 9.3
2014-Aug-21 12:31N 53°57' E 007°11'1110.7
2014-Aug-21 11:29N 53°60' E 007°30'1410.2
2014-Aug-21 10:04N 54°01' E 007°54'510.1
2014-Aug-21 09:33N 54°01' E 008°03'1010.2
2014-Aug-21 08:33N 54°00' E 008°20'10 9.7
2014-Aug-21 07:33N 53°58' E 008°36'9 8.8
2014-Aug-21 06:33N 53°51' E 008°46'9 8.9
2014-Aug-21 05:33N 53°52' E 009°01'5 5.1
2014-Aug-21 04:33N 53°54' E 009°09'5 5.2
2014-Aug-21 03:33N 53°57' E 009°15'8 8.4
2014-Aug-21 02:33N 54°05' E 009°19'6 6.2
2014-Aug-21 01:33N 54°10' E 009°26'8 7.7
2014-Aug-21 00:33N 54°15' E 009°37'67 6.5
2014-Aug-20 14:15N 54°32' E 011°28'6 8.1
2014-Aug-20 13:33N 54°30' E 011°38'8 7.9
2014-Aug-20 12:33N 54°28' E 011°51'9 8.7
2014-Aug-20 11:33N 54°27' E 012°06'8 8.2
2014-Aug-20 10:33N 54°34' E 012°13'9 8.9
2014-Aug-20 09:31N 54°42' E 012°22'9 9.1
2014-Aug-20 08:33N 54°47' E 012°33'10 9.1
2014-Aug-20 07:30N 54°54' E 012°46'48 8.0
2014-Aug-20 01:29N 55°13' E 014°03'8 8.5
2014-Aug-20 00:33N 55°14' E 014°16'  

Dump ship's entire track history